Time;durP1;ratioP1;P1;durP2;ratioP2;P2;SDS_P1;SDS_P2;PMS_P1;PMS_P2;Temp;Humidity;BMP_temperature;BMP_pressure;BME280_temperature;BME280_humidity;BME280_pressure;Samples;Min_cycle;Max_cycle;Signal;HPM_P1;HPM_P2
2022/12/22 03:28:47;;;;;;;9.60;6.77;;;10.20;99.90;;;;;;10427399;28;20745;-69
2022/12/22 03:33:48;;;;;;;9.40;7.13;;;10.20;99.90;;;;;;10426840;28;20303;-70
2022/12/22 03:38:51;;;;;;;9.90;6.93;;;10.20;99.90;;;;;;10433908;28;20231;-69
2022/12/22 03:49:12;;;;;;;6.37;5.67;;;10.20;99.90;;;;;;10424309;28;20226;-70
2022/12/22 03:54:15;;;;;;;7.23;5.70;;;10.20;99.90;;;;;;10431424;28;20622;-70
2022/12/22 03:59:17;;;;;;;8.03;5.57;;;10.20;99.90;;;;;;10423627;28;20250;-70
2022/12/22 04:04:20;;;;;;;5.43;4.93;;;10.20;99.90;;;;;;10431307;28;20586;-70
2022/12/22 04:09:21;;;;;;;8.60;4.60;;;10.20;99.90;;;;;;10424333;28;20349;-70
2022/12/22 04:14:22;;;;;;;5.67;4.03;;;10.30;99.90;;;;;;10430090;28;20227;-71
2022/12/22 04:19:24;;;;;;;6.23;4.53;;;10.30;99.90;;;;;;10423964;28;20269;-70
2022/12/22 04:24:24;;;;;;;6.23;3.77;;;10.30;99.90;;;;;;10434136;28;20209;-69
2022/12/22 04:29:25;;;;;;;6.73;3.30;;;10.30;99.90;;;;;;10422760;28;20218;-69
2022/12/22 04:34:25;;;;;;;5.33;3.27;;;10.30;99.90;;;;;;10431643;28;20246;-70
2022/12/22 04:39:26;;;;;;;3.47;2.97;;;10.30;99.90;;;;;;10436265;28;20229;-70
2022/12/22 04:44:26;;;;;;;5.63;3.20;;;10.30;99.90;;;;;;10439277;28;20596;-69
2022/12/22 04:49:27;;;;;;;6.40;3.47;;;10.30;99.90;;;;;;10434421;28;20217;-69
2022/12/22 04:54:27;;;;;;;5.83;3.10;;;10.30;99.90;;;;;;10435360;28;20222;-70
2022/12/22 04:59:28;;;;;;;6.03;3.20;;;10.30;99.90;;;;;;10428853;28;20227;-69
2022/12/22 05:04:28;;;;;;;6.20;3.20;;;10.30;99.90;;;;;;10429053;28;20210;-70
2022/12/22 05:09:29;;;;;;;6.37;2.77;;;10.30;99.90;;;;;;10434964;28;20246;-70
2022/12/22 05:14:29;;;;;;;5.90;2.80;;;10.30;99.90;;;;;;10430446;28;20768;-70
2022/12/22 05:19:30;;;;;;;3.13;2.63;;;10.30;99.90;;;;;;10434157;28;20608;-70
2022/12/22 05:24:30;;;;;;;5.93;2.70;;;10.30;99.90;;;;;;10430149;28;20223;-70
2022/12/22 05:29:31;;;;;;;5.70;3.10;;;10.30;99.90;;;;;;10427755;28;20256;-69
2022/12/22 05:34:31;;;;;;;6.73;2.47;;;10.30;99.90;;;;;;10441708;28;20711;-70
2022/12/22 05:39:32;;;;;;;4.30;2.17;;;10.40;99.90;;;;;;10429737;28;20230;-69
2022/12/22 05:44:33;;;;;;;4.50;2.93;;;10.40;99.90;;;;;;10426060;28;20224;-71
2022/12/22 05:49:33;;;;;;;3.80;2.13;;;10.50;99.90;;;;;;10436836;28;20368;-70
2022/12/22 05:54:34;;;;;;;3.00;2.10;;;10.50;99.90;;;;;;10431755;28;20249;-70
2022/12/22 05:59:34;;;;;;;4.43;1.90;;;10.60;99.90;;;;;;10428811;28;20240;-69
2022/12/22 06:04:35;;;;;;;3.70;2.30;;;10.50;99.90;;;;;;10431689;28;20220;-69
2022/12/22 06:09:35;;;;;;;6.43;3.30;;;10.60;99.90;;;;;;10428867;28;20748;-69
2022/12/22 06:14:42;;;;;;;3.87;2.43;;;10.60;99.90;;;;;;10436611;28;20250;-70
2022/12/22 06:19:42;;;;;;;4.00;2.20;;;10.60;99.90;;;;;;10427960;28;20230;-69
2022/12/22 06:24:43;;;;;;;5.57;2.03;;;10.60;99.90;;;;;;10428061;28;20224;-69
2022/12/22 06:29:44;;;;;;;2.70;1.60;;;10.60;99.90;;;;;;10428872;28;20308;-70
2022/12/22 06:34:44;;;;;;;2.87;1.80;;;10.70;99.90;;;;;;10439033;28;20224;-69
2022/12/22 06:39:45;;;;;;;8.03;2.27;;;10.60;99.90;;;;;;10428663;28;20703;-69
2022/12/22 06:44:46;;;;;;;4.03;1.57;;;10.70;99.90;;;;;;10424102;28;20306;-70
2022/12/22 06:49:46;;;;;;;5.03;2.00;;;10.70;99.90;;;;;;10423014;28;20322;-70
2022/12/22 06:54:50;;;;;;;4.70;1.80;;;10.70;99.90;;;;;;10427643;28;20717;-69
2022/12/22 06:59:50;;;;;;;4.73;1.53;;;10.80;99.90;;;;;;10430404;28;20254;-70
2022/12/22 07:04:51;;;;;;;5.40;2.27;;;10.80;99.90;;;;;;10429430;28;20250;-70
2022/12/22 07:09:52;;;;;;;9.50;2.63;;;10.80;99.90;;;;;;10427726;28;20716;-70
2022/12/22 07:14:52;;;;;;;6.93;1.97;;;10.70;99.90;;;;;;10429096;28;20696;-70
2022/12/22 07:19:56;;;;;;;7.83;2.40;;;10.70;99.90;;;;;;10432062;28;20226;-70
2022/12/22 07:24:57;;;;;;;5.97;2.20;;;10.70;99.90;;;;;;10423642;28;20217;-70
2022/12/22 07:29:57;;;;;;;5.53;2.03;;;10.70;99.90;;;;;;10425548;28;20231;-70
2022/12/22 07:34:58;;;;;;;3.67;2.13;;;10.80;99.90;;;;;;10428733;28;20226;-70
2022/12/22 07:39:58;;;;;;;7.20;2.10;;;10.70;99.90;;;;;;10424905;28;20220;-70
2022/12/22 07:44:59;;;;;;;5.13;1.80;;;10.80;99.90;;;;;;10432889;28;20239;-70
2022/12/22 07:55:19;;;;;;;4.90;2.00;;;10.90;99.90;;;;;;10422679;28;20302;-70
2022/12/22 08:00:20;;;;;;;4.97;1.60;;;10.90;99.90;;;;;;10423225;28;20201;-70
2022/12/22 08:05:23;;;;;;;6.47;2.17;;;10.90;99.90;;;;;;10431622;28;20373;-70
2022/12/22 08:10:24;;;;;;;7.80;1.77;;;10.90;99.90;;;;;;10430564;28;20273;-70
2022/12/22 08:15:24;;;;;;;5.57;1.67;;;11.00;99.90;;;;;;10442208;28;20309;-70
2022/12/22 08:20:25;;;;;;;4.03;1.20;;;11.10;99.90;;;;;;10430903;28;20316;-70
2022/12/22 08:25:26;;;;;;;3.73;1.20;;;11.30;99.90;;;;;;10437446;28;20221;-71
2022/12/22 08:30:27;;;;;;;5.67;1.20;;;11.50;99.90;;;;;;10429123;28;20245;-70
2022/12/22 08:35:28;;;;;;;5.50;1.23;;;11.60;99.90;;;;;;10435922;28;20348;-70
2022/12/22 08:40:31;;;;;;;9.00;2.10;;;11.70;99.90;;;;;;10438791;28;20581;-68
2022/12/22 08:45:32;;;;;;;7.67;1.50;;;11.80;99.90;;;;;;10434872;28;20225;-69
2022/12/22 08:50:32;;;;;;;9.23;2.17;;;11.80;99.90;;;;;;10432328;28;20293;-69
2022/12/22 08:55:33;;;;;;;6.53;1.73;;;11.80;99.90;;;;;;10432254;28;20687;-69
2022/12/22 09:00:34;;;;;;;6.30;1.73;;;11.80;99.90;;;;;;10444404;28;20402;-69
2022/12/22 09:05:37;;;;;;;4.37;1.37;;;11.70;99.90;;;;;;10430289;28;20229;-70
2022/12/22 09:10:41;;;;;;;5.60;1.50;;;11.80;99.90;;;;;;10438132;28;20310;-70
2022/12/22 09:15:45;;;;;;;5.07;1.73;;;11.80;99.90;;;;;;10431235;28;20277;-68
2022/12/22 09:20:48;;;;;;;7.50;1.90;;;11.90;99.90;;;;;;10431037;28;20450;-69
2022/12/22 09:25:48;;;;;;;8.40;1.73;;;11.90;99.90;;;;;;10437024;28;20249;-69
2022/12/22 09:30:52;;;;;;;6.23;1.87;;;11.80;99.90;;;;;;10432099;28;20715;-69
2022/12/22 09:35:56;;;;;;;8.53;2.10;;;11.80;99.90;;;;;;10433106;28;20231;-70
2022/12/22 09:40:57;;;;;;;9.13;2.73;;;11.80;99.90;;;;;;10432612;28;20230;-69
2022/12/22 09:45:59;;;;;;;7.27;1.50;;;11.80;99.90;;;;;;10431321;28;20226;-69
2022/12/22 09:51:01;;;;;;;6.37;1.70;;;11.90;99.90;;;;;;10435328;28;20752;-70
2022/12/22 09:56:02;;;;;;;7.67;1.93;;;11.90;99.90;;;;;;10428544;28;20313;-70
2022/12/22 10:01:20;;;;;;;5.47;1.40;;;12.00;99.90;;;;;;10433493;28;20324;-69
2022/12/22 10:06:41;;;;;;;7.67;1.70;;;12.10;99.90;;;;;;10428155;28;20225;-69
2022/12/22 10:11:53;;;;;;;7.93;1.70;;;12.10;99.90;;;;;;10429408;28;20223;-69
2022/12/22 10:17:14;;;;;;;3.30;1.03;;;12.10;99.90;;;;;;10431710;28;20575;-68
2022/12/22 10:22:44;;;;;;;6.03;1.33;;;12.10;99.90;;;;;;10431225;28;20317;-69
2022/12/22 10:27:45;;;;;;;6.13;1.57;;;12.10;99.90;;;;;;10425014;28;20222;-69
2022/12/22 10:33:02;;;;;;;4.53;1.20;;;12.10;99.90;;;;;;10434476;28;20602;-69
2022/12/22 10:38:27;;;;;;;4.80;1.10;;;12.10;99.90;;;;;;10425668;28;20698;-69
2022/12/22 10:43:37;;;;;;;3.77;1.10;;;12.20;99.90;;;;;;10425599;28;20230;-69
2022/12/22 10:48:38;;;;;;;4.43;1.10;;;12.30;99.90;;;;;;10436308;28;20231;-69
2022/12/22 10:53:55;;;;;;;3.73;0.97;;;12.30;99.90;;;;;;10432951;28;20257;-69
2022/12/22 10:59:12;;;;;;;2.13;0.77;;;12.20;99.90;;;;;;10427399;28;20329;-69
2022/12/22 11:04:24;;;;;;;3.03;1.00;;;11.90;99.90;;;;;;10431399;28;20229;-70
2022/12/22 11:09:25;;;;;;;5.30;0.97;;;11.70;99.90;;;;;;10433042;28;20709;-70
2022/12/22 11:14:38;;;;;;;3.23;1.10;;;11.60;99.90;;;;;;10434094;28;20250;-70
2022/12/22 11:19:57;;;;;;;1.60;0.63;;;11.60;99.90;;;;;;10430918;28;20239;-70
2022/12/22 11:25:11;;;;;;;1.40;0.63;;;11.70;99.90;;;;;;10428377;28;20697;-70
2022/12/22 11:30:19;;;;;;;3.67;0.70;;;11.80;99.90;;;;;;10423209;28;20234;-69
2022/12/22 11:35:23;;;;;;;3.30;0.80;;;11.80;99.90;;;;;;10424996;28;20237;-69
2022/12/22 11:40:31;;;;;;;3.07;0.40;;;11.90;99.90;;;;;;10440612;28;20705;-70
2022/12/22 11:45:50;;;;;;;0.60;0.40;;;12.00;99.90;;;;;;10429692;28;20227;-69
2022/12/22 11:51:12;;;;;;;1.53;0.30;;;12.00;99.90;;;;;;10436802;28;20233;-68
2022/12/22 11:56:23;;;;;;;0.33;0.20;;;11.90;99.90;;;;;;10432385;28;20679;-70
2022/12/22 12:01:49;;;;;;;0.50;0.30;;;11.80;99.90;;;;;;10432596;28;20230;-71
2022/12/22 12:07:23;;;;;;;0.97;0.20;;;11.60;99.90;;;;;;10433781;28;20257;-68
2022/12/22 12:12:54;;;;;;;0.70;0.70;;;11.40;99.90;;;;;;10435794;28;20626;-70
2022/12/22 12:18:18;;;;;;;0.20;0.20;;;11.40;99.90;;;;;;10404818;28;20238;-70
2022/12/22 12:23:30;;;;;;;1.87;0.30;;;11.40;99.90;;;;;;10431653;28;20219;-68
2022/12/22 12:28:46;;;;;;;3.57;0.40;;;11.40;99.90;;;;;;10438891;28;20682;-71
2022/12/22 12:33:59;;;;;;;0.93;0.33;;;11.50;99.90;;;;;;10433818;28;20656;-69
2022/12/22 12:39:27;;;;;;;0.87;0.50;;;11.60;99.90;;;;;;10439839;28;20223;-70
2022/12/22 12:44:33;;;;;;;1.50;0.43;;;11.80;99.90;;;;;;10431117;28;20254;-70
2022/12/22 12:49:33;;;;;;;1.40;0.53;;;11.90;99.90;;;;;;10430623;28;20706;-69
2022/12/22 12:54:45;;;;;;;4.03;0.30;;;11.90;99.90;;;;;;10435797;28;20280;-69
2022/12/22 12:59:47;;;;;;;1.80;0.57;;;11.90;99.90;;;;;;10428417;28;20320;-69
2022/12/22 13:05:06;;;;;;;0.67;0.40;;;11.90;99.90;;;;;;10437747;28;20313;-69
2022/12/22 13:10:21;;;;;;;1.33;0.63;;;11.80;99.90;;;;;;10430060;28;20726;-70
2022/12/22 13:15:37;;;;;;;1.70;0.20;;;11.80;99.90;;;;;;10430099;28;20194;-69
2022/12/22 13:20:38;;;;;;;1.23;0.40;;;11.80;99.90;;;;;;10433118;28;20369;-70
2022/12/22 13:25:52;;;;;;;1.63;0.40;;;11.80;99.90;;;;;;10430427;28;20306;-69
2022/12/22 13:30:59;;;;;;;1.17;0.40;;;11.80;99.90;;;;;;10430302;28;20616;-70
2022/12/22 13:36:00;;;;;;;0.40;0.40;;;11.70;99.90;;;;;;10433854;28;20364;-71
2022/12/22 13:41:16;;;;;;;2.07;0.30;;;11.60;99.90;;;;;;10437247;28;20256;-70
2022/12/22 13:46:19;;;;;;;0.30;0.20;;;11.60;99.90;;;;;;10439488;28;20223;-70
2022/12/22 13:51:31;;;;;;;0.77;0.20;;;11.50;99.90;;;;;;10427318;28;20302;-70
2022/12/22 13:56:45;;;;;;;1.43;0.50;;;11.40;99.90;;;;;;10432219;28;20235;-70
2022/12/22 14:01:50;;;;;;;5.07;2.93;;;11.30;99.90;;;;;;10438116;28;20504;-69
2022/12/22 14:06:51;;;;;;;16.83;10.80;;;11.20;99.90;;;;;;10426515;28;20272;-70
2022/12/22 14:12:05;;;;;;;1.83;0.53;;;11.30;99.90;;;;;;10429583;28;20258;-70
2022/12/22 14:17:30;;;;;;;3.33;0.70;;;11.20;99.90;;;;;;10433183;28;20248;-69
2022/12/22 14:22:41;;;;;;;1.00;0.53;;;11.30;99.90;;;;;;10427650;28;20230;-68
2022/12/22 14:27:48;;;;;;;3.50;0.60;;;11.30;99.90;;;;;;10430394;28;20215;-69
2022/12/22 14:32:53;;;;;;;1.70;0.50;;;11.40;99.90;;;;;;10428314;28;20227;-69
2022/12/22 14:38:21;;;;;;;3.00;0.80;;;11.40;99.90;;;;;;10433292;28;20211;-68
2022/12/22 14:43:26;;;;;;;1.43;0.70;;;11.40;99.90;;;;;;10426596;28;20738;-69
2022/12/22 14:48:43;;;;;;;0.73;0.50;;;11.50;99.90;;;;;;10432737;28;20237;-71
2022/12/22 14:53:46;;;;;;;0.97;0.67;;;11.40;99.90;;;;;;10428693;28;20225;-69
2022/12/22 14:58:48;;;;;;;0.90;0.50;;;11.40;99.90;;;;;;10428920;28;20779;-70
2022/12/22 15:04:17;;;;;;;1.77;0.63;;;11.40;99.90;;;;;;10424583;28;20839;-70
2022/12/22 15:09:18;;;;;;;1.20;0.60;;;11.40;99.90;;;;;;10432397;28;20700;-68
2022/12/22 15:14:22;;;;;;;1.43;0.60;;;11.30;99.90;;;;;;10432216;28;20291;-69
2022/12/22 15:19:22;;;;;;;0.50;0.50;;;11.30;99.90;;;;;;10422273;28;20218;-69
2022/12/22 15:24:23;;;;;;;2.20;0.70;;;11.30;99.90;;;;;;10425643;28;20213;-70
2022/12/22 15:29:24;;;;;;;1.17;0.50;;;11.20;99.90;;;;;;10439838;28;20319;-70
2022/12/22 15:34:29;;;;;;;0.40;0.40;;;11.20;99.90;;;;;;10424974;28;20295;-68
2022/12/22 15:39:30;;;;;;;1.47;0.60;;;11.20;99.90;;;;;;10437895;28;20215;-69
2022/12/22 15:44:30;;;;;;;2.63;0.57;;;11.10;99.90;;;;;;10425456;28;20218;-70
2022/12/22 15:49:31;;;;;;;0.87;0.73;;;11.10;99.90;;;;;;10422898;28;20230;-69
2022/12/22 15:54:32;;;;;;;0.90;0.70;;;11.10;99.90;;;;;;10431758;28;20223;-69
2022/12/22 15:59:32;;;;;;;0.83;0.60;;;11.10;99.90;;;;;;10429681;28;20277;-70
2022/12/22 16:04:33;;;;;;;1.80;0.43;;;11.00;99.90;;;;;;10425856;28;20696;-69
2022/12/22 16:09:40;;;;;;;1.30;0.70;;;11.00;99.90;;;;;;10433346;28;20217;-69
2022/12/22 16:14:46;;;;;;;1.13;0.60;;;11.00;99.90;;;;;;10426391;28;20246;-68
2022/12/22 16:19:47;;;;;;;1.33;0.60;;;11.00;99.90;;;;;;10425759;28;20231;-70
2022/12/22 16:24:49;;;;;;;0.93;0.60;;;10.90;99.90;;;;;;10427430;28;20238;-71
2022/12/22 16:29:52;;;;;;;3.13;1.13;;;10.90;99.90;;;;;;10433065;28;20317;-70
2022/12/22 16:34:59;;;;;;;4.57;1.00;;;10.80;99.90;;;;;;10442416;28;20248;-71
2022/12/22 16:40:00;;;;;;;38.50;13.47;;;10.70;99.90;;;;;;10435809;28;20210;-70
2022/12/22 16:45:03;;;;;;;6.27;2.70;;;10.70;99.90;;;;;;10441858;28;20690;-71
2022/12/22 16:50:13;;;;;;;5.40;1.93;;;10.70;99.90;;;;;;10437126;28;20617;-71
2022/12/22 16:55:20;;;;;;;4.60;1.60;;;10.60;99.90;;;;;;10433905;28;20195;-70
2022/12/22 17:00:23;;;;;;;3.03;1.40;;;10.60;99.90;;;;;;10435604;28;20214;-71
2022/12/22 17:05:28;;;;;;;1.83;1.00;;;10.60;99.90;;;;;;10448651;28;20278;-70
2022/12/22 17:11:19;;;;;;;1.83;1.30;;;10.60;99.90;;;;;;10436172;28;20184;-70
2022/12/22 17:17:09;;;;;;;3.80;1.40;;;10.60;99.90;;;;;;10434925;28;20195;-70
2022/12/22 17:23:00;;;;;;;3.17;2.00;;;10.60;99.90;;;;;;10442893;28;20320;-70
2022/12/22 17:28:52;;;;;;;4.97;1.83;;;10.70;99.90;;;;;;10440152;28;20186;-70
2022/12/22 17:34:43;;;;;;;3.40;2.53;;;10.60;99.90;;;;;;10438841;28;20240;-70
2022/12/22 17:40:34;;;;;;;4.07;2.43;;;10.60;99.90;;;;;;10453915;28;20199;-69
2022/12/22 17:46:25;;;;;;;4.33;2.20;;;10.60;99.90;;;;;;10435722;28;20186;-69
2022/12/22 17:52:16;;;;;;;4.47;2.20;;;10.50;99.90;;;;;;10449452;28;20203;-69
2022/12/22 17:58:06;;;;;;;9.00;2.80;;;10.40;99.90;;;;;;10432846;28;20204;-69
2022/12/22 18:03:56;;;;;;;12.40;3.07;;;10.30;99.90;;;;;;10433951;28;20302;-69
2022/12/22 18:09:46;;;;;;;13.03;3.80;;;10.40;99.90;;;;;;10442503;28;20215;-69
2022/12/22 18:15:36;;;;;;;13.60;4.07;;;10.50;99.90;;;;;;10436002;28;20194;-70
2022/12/22 18:21:26;;;;;;;16.53;4.67;;;10.50;99.90;;;;;;10426409;28;20314;-70
2022/12/22 18:27:18;;;;;;;22.10;4.97;;;10.60;99.90;;;;;;10431798;28;20192;-69
2022/12/22 18:33:09;;;;;;;21.63;5.00;;;10.60;99.90;;;;;;10447395;28;20234;-70
2022/12/22 18:45:10;;;;;;;26.43;5.53;;;10.70;99.90;;;;;;10443008;28;20529;-69
2022/12/22 18:51:02;;;;;;;30.50;6.33;;;10.70;99.90;;;;;;10420959;28;20196;-69
2022/12/22 18:56:53;;;;;;;21.33;5.83;;;10.80;99.90;;;;;;10423969;28;20183;-69
2022/12/22 19:02:44;;;;;;;25.67;6.30;;;10.70;99.90;;;;;;10422399;28;20300;-69
2022/12/22 19:08:34;;;;;;;29.93;6.33;;;10.70;99.90;;;;;;10421571;28;20177;-69
2022/12/22 22:02:55;;;;;;;29.93;7.87;;;10.20;99.90;;;;;;10437082;28;20206;-69
2022/12/22 22:07:57;;;;;;;31.67;8.57;;;10.20;99.90;;;;;;10381446;28;20588;-71
2022/12/22 22:12:58;;;;;;;26.30;7.47;;;10.20;99.90;;;;;;10388325;28;20717;-70
2022/12/22 22:17:58;;;;;;;30.13;7.37;;;10.20;99.90;;;;;;10430141;28;20218;-71
2022/12/22 22:22:59;;;;;;;25.20;8.03;;;10.30;99.90;;;;;;10423602;28;20365;-70
2022/12/22 22:28:00;;;;;;;23.33;7.30;;;10.30;99.90;;;;;;10426293;28;20227;-70
2022/12/22 22:33:00;;;;;;;22.40;7.17;;;10.30;99.90;;;;;;10429745;28;20230;-70
2022/12/22 22:38:01;;;;;;;20.97;7.37;;;10.30;99.90;;;;;;10431661;28;20219;-70
2022/12/22 22:43:01;;;;;;;24.43;7.53;;;10.30;99.90;;;;;;10444490;28;20229;-70
2022/12/22 22:48:02;;;;;;;24.83;8.17;;;10.30;99.90;;;;;;10440598;28;20637;-70
2022/12/22 22:53:02;;;;;;;21.47;7.47;;;10.30;99.90;;;;;;10433387;28;20233;-70
2022/12/22 22:58:03;;;;;;;19.97;7.63;;;10.30;99.90;;;;;;10411764;28;20230;-70
2022/12/22 23:03:04;;;;;;;27.40;7.97;;;10.30;99.90;;;;;;10406305;28;20235;-71
2022/12/22 23:08:05;;;;;;;22.90;7.30;;;10.30;99.90;;;;;;10432710;28;20275;-69
2022/12/22 23:13:05;;;;;;;20.63;6.83;;;10.40;99.90;;;;;;10442093;28;20698;-70
2022/12/22 23:18:06;;;;;;;21.07;7.13;;;10.30;99.90;;;;;;10430461;28;20759;-70
2022/12/22 23:23:06;;;;;;;15.80;5.97;;;10.30;99.90;;;;;;10412412;28;20332;-70
2022/12/22 23:28:07;;;;;;;20.10;7.13;;;10.40;99.90;;;;;;10424888;28;20231;-71
2022/12/22 23:33:07;;;;;;;17.47;6.57;;;10.40;99.90;;;;;;10412464;28;20226;-70
2022/12/22 23:38:09;;;;;;;13.53;6.27;;;10.40;99.90;;;;;;10406689;28;20228;-72
2022/12/22 23:43:11;;;;;;;13.57;5.80;;;10.30;99.90;;;;;;10440224;28;20232;-69
2022/12/22 23:48:11;;;;;;;14.23;5.00;;;10.30;99.90;;;;;;10431000;28;20821;-69
2022/12/22 23:53:12;;;;;;;14.10;6.00;;;10.30;99.90;;;;;;10431306;28;20215;-70
2022/12/22 23:58:14;;;;;;;11.63;5.33;;;10.30;99.90;;;;;;10431619;28;20226;-71
